EGLF

Farnborough Airport

Farnborough, United Kingdom
METAR EGLF 211850Z VRB02KT 9999 BKN034 13/11 Q1028
Observed Flight Rules
Oct-21 @ 18:50 UTC (2 hours ago) Visual Flight Rules
Wind Visibility Clouds
Variable at 2 knots 10,000+ meters
  • Broken at 3,400' AGL
Temperatures Readings
Current 13°C / 55°F
Dewpoint 11°C / 52°F
Humidity 88%
Altimeter 30.35" Hg
Pressure 1028 hPa
Elevation 65
METAR EGLF 211850Z VRB02KT 9999 BKN034 13/11 Q1028
Observed Flight Rules
Oct-21 @ 18:50 UTC
(2 hours ago)
VFR
Wind Visibility
Variable at 2 knots 10,000+ meters
Clouds
  • Broken at 3,400' AGL
Temperature Dewpoint
13°C / 55°F 11°C / 52°F
Humidity Altimeter Pressure
88% 30.35" Hg 1028 hPa